Time;durP1;ratioP1;P1;durP2;ratioP2;P2;SDS_P1;SDS_P2;PMS_P1;PMS_P2;Temp;Humidity;BMP_temperature;BMP_pressure;BME280_temperature;BME280_humidity;BME280_pressure;Samples;Min_cycle;Max_cycle;Signal;HPM_P1;HPM_P2
2021/12/20 00:00:15;;;;;;;40.88;17.05;;;;;;;4.78;100.00;102719.94;4896130;29;20031;-87
2021/12/20 00:02:41;;;;;;;40.33;16.85;;;;;;;4.66;100.00;102690.25;4896397;29;20041;-86
2021/12/20 00:05:08;;;;;;;39.15;17.92;;;;;;;4.76;100.00;102705.97;4895379;29;20549;-87
2021/12/20 00:07:33;;;;;;;37.25;17.40;;;;;;;4.71;100.00;102701.19;4897295;29;20028;-86
2021/12/20 00:09:58;;;;;;;38.85;17.55;;;;;;;4.64;100.00;102698.41;4896420;29;20396;-86
2021/12/20 00:12:24;;;;;;;41.33;17.35;;;;;;;4.60;100.00;102697.09;4896957;29;20047;-86
2021/12/20 00:14:49;;;;;;;39.65;16.77;;;;;;;4.61;100.00;102696.09;4896719;29;20408;-86
2021/12/20 00:17:14;;;;;;;39.25;17.70;;;;;;;4.65;100.00;102699.25;4900593;29;20101;-87
2021/12/20 00:19:40;;;;;;;44.28;18.20;;;;;;;4.72;100.00;102710.81;4878015;29;20392;-86
2021/12/20 00:22:05;;;;;;;40.08;18.42;;;;;;;4.55;100.00;102691.47;4894920;29;20038;-86
2021/12/20 00:24:30;;;;;;;38.08;16.80;;;;;;;4.63;100.00;102710.03;4896853;29;20524;-86
2021/12/20 00:26:56;;;;;;;40.88;16.60;;;;;;;4.64;100.00;102706.38;4896701;29;20037;-87
2021/12/20 00:29:21;;;;;;;38.42;15.40;;;;;;;4.67;100.00;102710.50;4896297;29;20120;-86
2021/12/20 00:31:46;;;;;;;34.83;14.32;;;;;;;4.53;100.00;102693.47;4895492;29;20076;-86
2021/12/20 00:34:12;;;;;;;38.92;15.18;;;;;;;4.64;100.00;102709.03;4896363;29;20024;-86
2021/12/20 00:36:37;;;;;;;30.67;13.52;;;;;;;4.64;100.00;102711.69;4896421;29;20064;-87
2021/12/20 00:41:47;;;;;;;33.13;13.10;;;;;;;4.63;100.00;102707.38;4896215;29;20046;-87
2021/12/20 00:44:12;;;;;;;28.63;10.57;;;;;;;4.56;100.00;102701.09;4896046;29;20115;-87
2021/12/20 00:46:38;;;;;;;28.10;10.77;;;;;;;4.61;100.00;102708.56;4894779;29;20040;-86
2021/12/20 00:49:03;;;;;;;28.08;10.25;;;;;;;4.53;100.00;102706.75;4878949;29;20040;-88
2021/12/20 00:51:28;;;;;;;31.67;10.38;;;;;;;4.48;100.00;102685.19;4895936;29;20484;-88
2021/12/20 00:53:54;;;;;;;31.70;9.88;;;;;;;4.42;100.00;102683.22;4896692;29;20079;-88
2021/12/20 00:56:19;;;;;;;27.80;9.57;;;;;;;4.44;100.00;102690.03;4895177;29;20502;-88
2021/12/20 00:58:44;;;;;;;26.70;9.32;;;;;;;4.41;100.00;102698.31;4895911;29;20029;-89
2021/12/20 01:01:10;;;;;;;29.45;9.18;;;;;;;4.49;100.00;102695.63;4894988;29;20032;-89
2021/12/20 01:03:36;;;;;;;28.58;9.32;;;;;;;4.37;100.00;102692.53;4894985;29;20399;-88
2021/12/20 01:06:02;;;;;;;30.50;8.88;;;;;;;4.38;100.00;102688.84;4895659;29;20017;-88
2021/12/20 01:08:32;;;;;;;26.38;7.75;;;;;;;4.44;100.00;102703.31;4894316;29;20089;-88
2021/12/20 01:10:57;;;;;;;28.00;8.18;;;;;;;4.38;100.00;102696.81;4878321;29;20028;-88
2021/12/20 01:13:28;;;;;;;26.30;7.60;;;;;;;4.43;100.00;102711.41;4895991;29;20028;-88
2021/12/20 01:15:54;;;;;;;25.83;8.02;;;;;;;4.31;100.00;102685.25;4892102;29;20028;-88
2021/12/20 01:18:21;;;;;;;28.17;7.30;;;;;;;4.31;100.00;102695.88;4894127;29;20075;-88
2021/12/20 01:20:46;;;;;;;31.17;7.28;;;;;;;4.32;100.00;102705.47;4894033;29;20033;-88
2021/12/20 01:23:13;;;;;;;27.60;7.25;;;;;;;4.37;100.00;102719.09;4895703;29;20084;-88
2021/12/20 01:25:40;;;;;;;26.77;6.82;;;;;;;4.22;100.00;102686.25;4894304;29;20020;-88
2021/12/20 01:28:07;;;;;;;26.13;6.72;;;;;;;4.30;100.00;102706.63;4894687;29;20048;-88
2021/12/20 01:30:36;;;;;;;25.63;6.57;;;;;;;4.29;100.00;102697.84;4895158;29;20095;-88
2021/12/20 01:33:02;;;;;;;27.83;6.35;;;;;;;4.25;100.00;102696.53;4895273;29;20425;-88
2021/12/20 01:35:28;;;;;;;27.33;6.47;;;;;;;4.20;100.00;102688.25;4895227;29;20025;-88
2021/12/20 01:37:56;;;;;;;28.60;6.07;;;;;;;4.17;100.00;102691.25;4895347;29;20045;-88
2021/12/20 01:40:22;;;;;;;28.70;6.00;;;;;;;4.24;100.00;102701.03;4894474;29;20031;-88
2021/12/20 01:42:49;;;;;;;31.33;5.95;;;;;;;4.05;100.00;102669.53;4895469;29;20025;-88
2021/12/20 01:45:20;;;;;;;29.23;6.70;;;;;;;4.23;100.00;102698.53;4889931;29;20083;-88
2021/12/20 01:47:50;;;;;;;31.23;6.18;;;;;;;4.17;100.00;102691.25;4895150;29;20484;-88
2021/12/20 01:50:20;;;;;;;33.08;5.95;;;;;;;4.22;100.00;102694.22;4894454;29;20047;-88
2021/12/20 01:52:45;;;;;;;31.55;5.72;;;;;;;4.13;100.00;102689.94;4895523;29;20464;-88
2021/12/20 01:55:14;;;;;;;29.38;6.38;;;;;;;4.17;100.00;102700.03;4894978;29;20088;-88
2021/12/20 01:57:39;;;;;;;27.58;6.20;;;;;;;4.08;100.00;102683.28;4895030;29;20069;-88
2021/12/20 02:00:08;;;;;;;31.65;5.95;;;;;;;4.03;100.00;102675.00;4894135;29;20029;-88
2021/12/20 02:02:34;;;;;;;29.50;6.18;;;;;;;4.13;100.00;102690.75;4894620;29;20051;-88
2021/12/20 02:05:10;;;;;;;27.92;6.22;;;;;;;3.99;100.00;102670.22;4894370;29;20032;-88
2021/12/20 02:08:13;;;;;;;27.90;6.40;;;;;;;3.90;100.00;102658.78;4895088;29;20035;-88
2021/12/20 02:11:03;;;;;;;29.20;5.88;;;;;;;4.06;100.00;102681.81;4890165;23;20051;-88
2021/12/20 02:13:48;;;;;;;26.85;5.68;;;;;;;3.89;100.00;102651.81;4931247;29;20069;-87
2021/12/20 02:16:51;;;;;;;33.38;6.93;;;;;;;3.98;100.00;102672.03;4936773;23;20036;-88
2021/12/20 02:19:27;;;;;;;29.50;6.30;;;;;;;3.89;100.00;102659.78;4900579;23;20150;-88
2021/12/20 02:21:53;;;;;;;29.95;5.97;;;;;;;3.95;100.00;102667.06;4874035;29;20136;-88
2021/12/20 02:24:30;;;;;;;28.80;6.43;;;;;;;3.88;100.00;102651.00;4876195;29;20104;-88
2021/12/20 02:27:02;;;;;;;29.08;6.00;;;;;;;3.96;100.00;102670.53;4904881;23;20047;-88
2021/12/20 02:29:43;;;;;;;25.95;5.68;;;;;;;3.95;100.00;102656.47;4932435;29;20403;-88
2021/12/20 02:37:59;;;;;;;;;;;;;;;4.14;100.00;102686.28;4932672;29;20454;-88
2021/12/20 02:40:36;;;;;;;24.67;6.22;;;;;;;4.04;100.00;102674.00;4922981;29;19950;-88
2021/12/20 02:43:17;;;;;;;28.40;5.88;;;;;;;3.93;100.00;102653.16;4919855;29;20027;-88
2021/12/20 02:45:47;;;;;;;34.25;6.40;;;;;;;4.00;100.00;102670.06;4910515;29;20554;-88
2021/12/20 02:48:28;;;;;;;31.00;6.40;;;;;;;4.03;100.00;102675.00;4914679;29;20031;-88
2021/12/20 02:51:05;;;;;;;33.20;6.33;;;;;;;3.89;100.00;102654.47;4917155;29;20036;-88
2021/12/20 02:53:43;;;;;;;26.25;5.50;;;;;;;3.87;100.00;102648.50;4913681;29;20124;-88
2021/12/20 02:56:24;;;;;;;23.55;5.88;;;;;;;3.85;100.00;102639.88;4913227;29;20026;-88
2021/12/20 02:58:59;;;;;;;25.60;5.22;;;;;;;3.86;100.00;102647.69;4893645;29;20037;-88
2021/12/20 03:01:25;;;;;;;29.70;5.50;;;;;;;3.98;100.00;102666.75;4899040;29;20019;-88
2021/12/20 03:06:26;;;;;;;31.20;5.78;;;;;;;3.97;100.00;102653.63;4919486;23;20055;-88
2021/12/20 03:08:55;;;;;;;29.60;6.20;;;;;;;3.94;100.00;102662.75;4912937;29;20104;-88
2021/12/20 03:11:23;;;;;;;28.73;6.00;;;;;;;3.91;100.00;102661.28;4912900;29;20024;-87
2021/12/20 03:13:57;;;;;;;35.08;6.22;;;;;;;4.00;100.00;102672.72;4913405;29;20063;-88
2021/12/20 03:16:22;;;;;;;31.15;5.78;;;;;;;4.11;100.00;102691.91;4912476;29;20092;-88
2021/12/20 03:18:47;;;;;;;24.80;5.38;;;;;;;3.99;100.00;102673.72;4911568;29;20065;-88
2021/12/20 03:21:13;;;;;;;29.67;5.57;;;;;;;4.08;100.00;102682.47;4912291;29;20482;-88
2021/12/20 03:23:38;;;;;;;26.33;5.88;;;;;;;3.94;100.00;102657.47;4897553;29;20381;-88
2021/12/20 03:26:05;;;;;;;24.80;5.82;;;;;;;4.00;100.00;102666.56;4913956;29;20677;-88
2021/12/20 03:28:30;;;;;;;33.25;6.00;;;;;;;3.96;100.00;102667.88;4916457;29;20484;-88
2021/12/20 03:30:56;;;;;;;32.85;5.72;;;;;;;4.07;100.00;102681.63;4915955;29;20099;-88
2021/12/20 03:33:21;;;;;;;31.48;5.35;;;;;;;3.90;100.00;102664.09;4916381;29;20115;-88
2021/12/20 03:35:46;;;;;;;27.85;5.60;;;;;;;3.90;100.00;102664.94;4916042;29;20383;-88
2021/12/20 03:38:12;;;;;;;27.20;5.28;;;;;;;3.86;100.00;102665.41;4915924;29;20060;-88
2021/12/20 03:40:37;;;;;;;31.60;6.15;;;;;;;3.88;100.00;102674.03;4916219;29;20032;-88
2021/12/20 03:43:03;;;;;;;31.95;5.45;;;;;;;3.92;100.00;102683.31;4916234;29;20030;-88
2021/12/20 03:45:29;;;;;;;29.75;5.63;;;;;;;3.93;100.00;102685.78;4916262;29;20508;-88
2021/12/20 03:47:55;;;;;;;28.23;5.72;;;;;;;3.92;100.00;102686.81;4915733;29;20076;-88
2021/12/20 03:50:20;;;;;;;25.65;5.80;;;;;;;3.76;100.00;102663.78;4915117;29;20169;-88
2021/12/20 03:52:45;;;;;;;28.15;6.60;;;;;;;3.93;100.00;102675.19;4916541;29;20046;-88
2021/12/20 03:55:13;;;;;;;25.88;5.55;;;;;;;3.87;100.00;102665.25;4915439;29;20040;-88
2021/12/20 03:57:38;;;;;;;33.97;6.05;;;;;;;3.85;100.00;102664.59;4916479;29;20040;-88
2021/12/20 04:00:07;;;;;;;29.65;5.88;;;;;;;3.82;100.00;102664.94;4915136;29;20503;-88
2021/12/20 04:02:40;;;;;;;29.63;5.32;;;;;;;3.88;100.00;102689.94;4916037;29;20032;-88
2021/12/20 04:05:06;;;;;;;29.67;6.20;;;;;;;3.94;100.00;102686.63;4915118;29;20036;-87
2021/12/20 04:07:31;;;;;;;28.30;5.70;;;;;;;3.95;100.00;102677.69;4915852;29;20403;-88
2021/12/20 04:09:57;;;;;;;29.45;6.43;;;;;;;3.76;100.00;102653.16;4915078;29;20024;-88
2021/12/20 04:12:22;;;;;;;28.60;5.88;;;;;;;3.93;100.00;102674.38;4916102;29;20084;-88
2021/12/20 04:14:47;;;;;;;32.50;5.82;;;;;;;3.86;100.00;102668.06;4915726;29;20032;-88
2021/12/20 04:17:13;;;;;;;32.78;6.00;;;;;;;3.94;100.00;102676.03;4915484;29;20028;-88
2021/12/20 04:19:38;;;;;;;30.63;6.47;;;;;;;3.89;100.00;102675.69;4914763;29;20087;-88
2021/12/20 04:22:03;;;;;;;26.52;6.05;;;;;;;3.84;100.00;102670.06;4915542;29;20079;-88
2021/12/20 04:24:29;;;;;;;30.77;5.80;;;;;;;3.82;100.00;102666.75;4915019;29;20524;-87
2021/12/20 04:26:54;;;;;;;26.45;5.43;;;;;;;3.92;100.00;102681.50;4898983;29;20035;-87
2021/12/20 04:29:19;;;;;;;29.88;5.88;;;;;;;3.88;100.00;102682.84;4914753;29;20031;-88
2021/12/20 04:31:45;;;;;;;30.05;6.40;;;;;;;3.74;100.00;102657.00;4915370;29;20232;-88
2021/12/20 04:34:11;;;;;;;27.85;5.35;;;;;;;3.91;100.00;102679.00;4915072;29;20024;-88
2021/12/20 04:36:36;;;;;;;33.15;5.93;;;;;;;3.95;100.00;102675.03;4914808;29;20118;-88
2021/12/20 04:39:04;;;;;;;33.42;6.18;;;;;;;3.92;100.00;102678.00;4913768;29;20136;-88
2021/12/20 04:41:29;;;;;;;30.60;5.90;;;;;;;3.78;100.00;102655.66;4915277;29;20028;-88
2021/12/20 04:43:54;;;;;;;28.20;5.60;;;;;;;3.73;100.00;102645.53;4914849;29;20032;-88
2021/12/20 04:46:20;;;;;;;30.35;5.82;;;;;;;3.77;100.00;102660.13;4915001;29;20028;-88
2021/12/20 04:48:45;;;;;;;32.63;6.95;;;;;;;3.80;100.00;102664.25;4914510;29;20111;-87
2021/12/20 04:51:10;;;;;;;29.90;5.53;;;;;;;3.75;100.00;102658.63;4915072;29;20060;-88
2021/12/20 04:53:35;;;;;;;27.85;5.13;;;;;;;3.87;100.00;102675.03;4914980;29;20352;-88
2021/12/20 04:56:01;;;;;;;27.48;6.25;;;;;;;3.77;100.00;102676.03;4914398;29;20063;-88
2021/12/20 04:58:26;;;;;;;26.83;5.20;;;;;;;3.72;100.00;102662.44;4914497;29;20495;-88
2021/12/20 05:00:51;;;;;;;26.73;5.70;;;;;;;3.75;100.00;102659.47;4914858;29;20059;-88
2021/12/20 05:03:17;;;;;;;25.92;5.50;;;;;;;3.82;100.00;102685.34;4914579;29;20530;-88
2021/12/20 05:05:43;;;;;;;34.63;5.82;;;;;;;3.82;100.00;102686.16;4914853;29;20056;-87
2021/12/20 05:08:10;;;;;;;24.95;5.47;;;;;;;3.82;100.00;102672.06;4913559;29;20111;-88
2021/12/20 05:10:38;;;;;;;32.80;5.93;;;;;;;3.80;100.00;102680.19;4914125;29;20040;-87
2021/12/20 05:13:08;;;;;;;32.78;6.55;;;;;;;3.76;100.00;102671.72;4914351;29;20027;-88
2021/12/20 05:15:35;;;;;;;26.48;5.72;;;;;;;3.82;100.00;102687.97;4914906;29;20414;-88
2021/12/20 05:18:01;;;;;;;26.48;5.43;;;;;;;3.77;99.83;102676.03;4913649;29;20028;-88
2021/12/20 05:20:27;;;;;;;28.48;5.47;;;;;;;3.72;100.00;102674.88;4897493;29;20040;-88
2021/12/20 05:22:54;;;;;;;31.27;5.55;;;;;;;3.82;100.00;102687.97;4897473;29;20031;-87
2021/12/20 05:25:19;;;;;;;30.27;5.80;;;;;;;3.82;100.00;102687.97;4914227;29;20028;-88
2021/12/20 05:27:45;;;;;;;30.20;6.22;;;;;;;3.75;100.00;102672.72;4914025;29;20111;-88
2021/12/20 05:30:11;;;;;;;31.67;6.40;;;;;;;3.82;100.00;102682.69;4886183;29;20128;-87
2021/12/20 05:32:37;;;;;;;27.17;5.50;;;;;;;3.75;100.00;102678.03;4914224;29;20042;-88
2021/12/20 05:35:05;;;;;;;26.08;6.30;;;;;;;3.82;100.00;102694.09;4913787;29;20028;-88
2021/12/20 05:37:31;;;;;;;26.02;6.10;;;;;;;3.71;100.00;102682.00;4913827;29;20799;-88
2021/12/20 05:39:56;;;;;;;26.35;5.47;;;;;;;3.71;100.00;102668.75;4913252;29;20028;-87
2021/12/20 05:42:22;;;;;;;30.13;5.90;;;;;;;3.80;98.51;102690.78;4913947;29;20369;-86
2021/12/20 05:44:50;;;;;;;28.65;6.30;;;;;;;3.68;99.98;102663.78;4915690;29;20494;-87
2021/12/20 05:47:15;;;;;;;30.58;5.40;;;;;;;3.75;99.96;102679.84;4913709;29;20448;-87
2021/12/20 05:49:41;;;;;;;26.05;5.18;;;;;;;3.69;98.97;102670.72;4924243;29;20128;-87
2021/12/20 05:52:06;;;;;;;30.38;5.20;;;;;;;3.73;99.52;102674.72;4917263;29;20020;-86
2021/12/20 05:54:31;;;;;;;29.52;5.25;;;;;;;3.66;100.00;102667.59;4914857;29;20421;-87
2021/12/20 05:56:57;;;;;;;27.77;5.07;;;;;;;3.74;100.00;102686.97;4913723;29;20036;-87
2021/12/20 05:59:23;;;;;;;27.77;5.40;;;;;;;3.78;100.00;102687.47;4930611;29;20031;-87
2021/12/20 06:01:48;;;;;;;25.05;5.35;;;;;;;3.77;99.58;102691.09;4914339;29;20539;-87
2021/12/20 06:04:13;;;;;;;29.02;6.13;;;;;;;3.65;100.00;102672.09;4912793;29;20044;-86
2021/12/20 06:06:39;;;;;;;29.27;5.70;;;;;;;3.75;99.23;102688.63;4913223;29;20044;-85
2021/12/20 06:09:04;;;;;;;33.15;5.53;;;;;;;3.71;97.51;102681.19;4912274;29;20032;-85
2021/12/20 06:11:30;;;;;;;28.73;5.90;;;;;;;3.70;100.00;102667.09;4913675;29;20079;-86
2021/12/20 06:13:55;;;;;;;36.63;6.68;;;;;;;3.72;98.09;102675.69;4913041;29;20032;-85
2021/12/20 06:16:20;;;;;;;27.08;5.63;;;;;;;3.70;99.01;102676.88;4912839;29;20032;-85
2021/12/20 06:18:46;;;;;;;28.52;5.35;;;;;;;3.79;98.39;102692.63;4913355;29;20122;-85
2021/12/20 06:21:11;;;;;;;33.70;5.93;;;;;;;3.77;99.18;102691.97;4915598;29;20091;-85
2021/12/20 06:23:37;;;;;;;27.50;5.70;;;;;;;3.77;97.54;102699.06;4896625;29;20024;-86
2021/12/20 06:26:03;;;;;;;32.42;6.03;;;;;;;3.71;96.59;102692.59;4896239;29;20038;-86
2021/12/20 06:28:29;;;;;;;24.45;5.20;;;;;;;3.71;96.51;102697.91;4912956;29;20028;-86
2021/12/20 06:30:54;;;;;;;29.85;5.13;;;;;;;3.81;97.95;102708.34;4913511;29;20027;-85
2021/12/20 06:33:20;;;;;;;27.90;5.00;;;;;;;3.78;96.70;102712.19;4913133;29;20032;-85
2021/12/20 06:35:46;;;;;;;32.58;5.65;;;;;;;3.77;98.63;102697.25;4912249;29;20040;-86
2021/12/20 06:38:18;;;;;;;25.83;5.10;;;;;;;3.64;99.25;102692.44;4912562;29;20488;-85
2021/12/20 06:40:43;;;;;;;29.98;5.45;;;;;;;3.65;97.31;102688.00;4913123;29;20060;-85
2021/12/20 06:43:08;;;;;;;29.17;6.10;;;;;;;3.70;97.72;102698.09;4913038;29;20107;-85
2021/12/20 06:45:34;;;;;;;28.17;5.13;;;;;;;3.66;96.99;102705.53;4911100;29;20036;-86
2021/12/20 06:48:00;;;;;;;27.30;5.13;;;;;;;3.67;98.14;102712.50;4920517;29;20111;-85
2021/12/20 06:50:25;;;;;;;25.85;5.75;;;;;;;3.57;96.89;102696.75;4912628;29;20119;-85
2021/12/20 06:52:51;;;;;;;30.23;5.05;;;;;;;3.61;98.38;102697.25;4913720;29;20024;-85
2021/12/20 06:55:16;;;;;;;26.60;4.63;;;;;;;3.60;95.21;102695.59;4914803;29;20028;-85
2021/12/20 06:57:41;;;;;;;28.75;5.15;;;;;;;3.74;93.18;102710.03;4913247;29;20554;-85
2021/12/20 07:00:07;;;;;;;28.63;5.78;;;;;;;3.76;89.93;102714.16;4913596;29;20438;-85
2021/12/20 07:02:33;;;;;;;28.50;4.82;;;;;;;3.83;91.86;102716.16;4925989;29;20083;-85
2021/12/20 07:04:58;;;;;;;24.95;4.57;;;;;;;3.77;92.37;102709.69;4916125;29;20641;-85
2021/12/20 07:07:24;;;;;;;22.75;4.80;;;;;;;3.84;90.21;102717.78;4918415;29;20059;-85
2021/12/20 07:09:49;;;;;;;22.88;4.40;;;;;;;3.88;90.16;102727.09;4915259;29;20476;-85
2021/12/20 07:12:14;;;;;;;26.77;4.53;;;;;;;3.87;88.94;102714.81;4923184;29;20044;-86
2021/12/20 07:14:40;;;;;;;23.55;4.30;;;;;;;3.79;85.54;102710.34;4916300;29;20115;-86
2021/12/20 07:17:06;;;;;;;24.48;4.93;;;;;;;3.89;88.32;102720.78;4916519;29;20036;-86
2021/12/20 07:19:31;;;;;;;29.10;4.85;;;;;;;3.76;86.76;102706.22;4916425;29;20035;-86
2021/12/20 07:21:56;;;;;;;27.05;5.10;;;;;;;3.86;85.85;102705.19;4916888;29;20031;-86
2021/12/20 07:24:22;;;;;;;23.25;5.28;;;;;;;3.98;87.31;102733.06;4915770;29;20028;-85
2021/12/20 07:26:47;;;;;;;25.38;5.38;;;;;;;3.94;91.45;102731.72;4915377;29;20091;-86
2021/12/20 07:29:12;;;;;;;29.10;5.90;;;;;;;3.78;91.39;102719.28;4897157;29;20032;-85
2021/12/20 07:31:38;;;;;;;25.23;4.78;;;;;;;3.73;92.23;102708.38;4903266;29;20526;-86
2021/12/20 07:34:04;;;;;;;23.25;5.75;;;;;;;3.79;89.06;102718.28;4916060;29;20037;-86
2021/12/20 07:36:29;;;;;;;27.73;6.10;;;;;;;3.89;90.08;102728.75;4916374;29;20047;-81
2021/12/20 07:38:56;;;;;;;28.70;6.25;;;;;;;3.87;91.60;102734.22;4915995;29;20036;-81
2021/12/20 07:41:22;;;;;;;26.05;5.97;;;;;;;3.86;91.24;102734.38;4916269;29;20028;-82
2021/12/20 07:43:49;;;;;;;25.23;5.47;;;;;;;3.78;90.37;102719.28;4916181;29;20087;-82
2021/12/20 07:46:16;;;;;;;23.08;5.03;;;;;;;3.89;92.45;102736.69;4899070;29;20024;-81
2021/12/20 07:48:41;;;;;;;23.77;5.47;;;;;;;3.85;93.22;102725.59;4915775;29;20464;-82
2021/12/20 07:51:06;;;;;;;26.92;5.53;;;;;;;3.90;95.16;102727.75;4916147;29;20039;-82
2021/12/20 07:53:32;;;;;;;25.02;4.82;;;;;;;3.86;95.39;102734.38;4916089;29;20530;-82
2021/12/20 07:55:58;;;;;;;22.65;4.80;;;;;;;3.76;91.26;102727.41;4916058;29;20035;-82
2021/12/20 07:58:23;;;;;;;30.13;6.35;;;;;;;3.90;91.65;102736.53;4915154;29;20187;-83
2021/12/20 08:00:49;;;;;;;27.92;7.65;;;;;;;3.89;93.68;102739.34;4912242;29;20123;-82
2021/12/20 08:03:14;;;;;;;71.95;32.05;;;;;;;3.85;93.33;102732.72;4914617;29;20043;-83
2021/12/20 08:05:40;;;;;;;111.43;54.78;;;;;;;3.91;93.55;102740.88;4916526;29;20032;-83
2021/12/20 08:08:06;;;;;;;123.30;59.45;;;;;;;3.92;93.00;102737.22;4915025;29;20132;-83
2021/12/20 08:10:32;;;;;;;89.28;42.88;;;;;;;3.90;93.11;102741.00;4928868;29;20403;-83
2021/12/20 08:12:57;;;;;;;73.43;39.42;;;;;;;3.92;95.46;102741.69;4920171;29;20031;-83
2021/12/20 08:15:22;;;;;;;54.97;26.52;;;;;;;3.91;94.73;102729.41;4922651;29;20112;-83
2021/12/20 08:17:52;;;;;;;36.97;12.85;;;;;;;3.89;92.89;102726.94;4915067;29;20119;-83
2021/12/20 08:20:20;;;;;;;32.90;9.48;;;;;;;3.94;93.41;102729.88;4915195;29;20032;-82
2021/12/20 08:22:46;;;;;;;30.55;8.05;;;;;;;4.08;91.00;102754.94;4915532;29;20032;-82
2021/12/20 08:25:12;;;;;;;30.55;7.35;;;;;;;4.03;91.52;102741.31;4915314;29;20395;-83
2021/12/20 08:27:38;;;;;;;29.23;6.65;;;;;;;4.15;92.78;102748.97;4915844;29;20039;-83
2021/12/20 08:30:04;;;;;;;27.70;7.13;;;;;;;4.08;91.32;102746.16;4915357;29;20079;-83
2021/12/20 08:32:30;;;;;;;27.80;6.78;;;;;;;4.15;92.97;102741.00;4915317;29;20444;-83
2021/12/20 08:34:55;;;;;;;22.80;4.82;;;;;;;4.12;91.34;102736.03;4915695;29;20084;-83
2021/12/20 08:37:20;;;;;;;27.45;5.75;;;;;;;4.18;93.55;102738.84;4919407;29;20031;-83
2021/12/20 08:39:46;;;;;;;25.08;5.50;;;;;;;4.32;95.19;102749.75;4934147;29;20028;-84
2021/12/20 08:42:11;;;;;;;28.10;5.18;;;;;;;4.33;95.02;102760.22;4933705;29;20048;-84
2021/12/20 08:44:36;;;;;;;23.65;5.80;;;;;;;4.31;93.16;102759.56;4921462;29;20583;-83
2021/12/20 08:47:02;;;;;;;22.88;5.50;;;;;;;4.36;94.65;102762.53;4915000;29;20034;-83
2021/12/20 08:49:27;;;;;;;27.33;5.45;;;;;;;4.35;94.65;102755.59;4914941;29;20519;-83
2021/12/20 08:51:55;;;;;;;23.77;5.35;;;;;;;4.31;93.04;102738.31;4915097;29;20067;-83
2021/12/20 08:54:23;;;;;;;29.30;6.10;;;;;;;4.47;92.43;102760.53;4914386;29;20024;-84
2021/12/20 08:56:48;;;;;;;20.50;5.10;;;;;;;4.52;94.46;102758.19;4914955;29;20028;-83
2021/12/20 08:59:14;;;;;;;28.25;6.32;;;;;;;4.54;91.20;102762.34;4914701;29;20036;-83
2021/12/20 09:01:39;;;;;;;25.45;5.88;;;;;;;4.58;90.50;102754.03;4923911;29;20118;-83
2021/12/20 09:04:07;;;;;;;26.85;6.15;;;;;;;4.57;87.26;102755.03;4916248;29;20415;-83
2021/12/20 09:06:34;;;;;;;24.15;5.63;;;;;;;4.59;90.25;102739.75;4933782;29;20751;-83
2021/12/20 09:09:00;;;;;;;21.73;5.57;;;;;;;4.64;89.90;102750.72;4925770;29;20024;-83
2021/12/20 09:11:26;;;;;;;24.60;5.00;;;;;;;4.74;90.81;102755.81;4914665;29;20094;-83
2021/12/20 09:13:51;;;;;;;23.05;6.22;;;;;;;4.80;91.50;102763.09;4914941;29;20031;-83
2021/12/20 09:16:17;;;;;;;22.77;5.07;;;;;;;4.71;87.63;102756.97;4914969;29;20059;-83
2021/12/20 09:18:43;;;;;;;21.02;5.88;;;;;;;4.77;87.14;102769.56;4929877;29;20110;-83
2021/12/20 09:21:10;;;;;;;26.55;5.40;;;;;;;4.76;86.54;102753.78;4933203;29;20059;-83
2021/12/20 09:23:37;;;;;;;27.10;5.63;;;;;;;4.76;86.10;102764.41;4930944;29;20044;-83
2021/12/20 09:26:03;;;;;;;23.17;6.18;;;;;;;4.74;86.74;102761.13;4925736;29;20111;-83
2021/12/20 09:28:28;;;;;;;24.70;5.80;;;;;;;4.92;87.09;102775.00;4927331;29;20487;-83
2021/12/20 09:30:54;;;;;;;22.88;5.80;;;;;;;4.97;86.25;102777.97;4918842;29;20044;-83
2021/12/20 09:33:20;;;;;;;23.35;5.95;;;;;;;4.92;87.06;102764.38;4917438;29;20020;-83
2021/12/20 09:35:46;;;;;;;21.98;5.57;;;;;;;5.05;87.61;102768.31;4920587;29;20044;-83
2021/12/20 09:38:16;;;;;;;20.67;4.95;;;;;;;5.02;86.00;102761.53;4911832;29;20448;-83
2021/12/20 09:41:02;;;;;;;25.27;5.55;;;;;;;5.18;87.76;102784.53;4912598;29;20046;-84
2021/12/20 09:43:28;;;;;;;21.70;5.30;;;;;;;5.23;86.15;102789.31;4914042;29;20035;-83
2021/12/20 09:45:57;;;;;;;26.50;6.20;;;;;;;5.26;87.58;102781.84;4897019;29;20036;-83
2021/12/20 09:48:23;;;;;;;27.77;6.00;;;;;;;5.29;87.27;102778.84;4913903;29;20031;-83
2021/12/20 09:50:54;;;;;;;26.00;5.95;;;;;;;5.15;84.25;102769.75;4913937;29;20028;-84
2021/12/20 09:53:20;;;;;;;26.08;7.13;;;;;;;5.21;86.93;102775.38;4914138;29;20024;-84
2021/12/20 09:55:46;;;;;;;24.98;5.75;;;;;;;5.27;85.89;102780.84;4910899;29;20036;-83
2021/12/20 09:58:12;;;;;;;26.50;6.15;;;;;;;5.36;86.77;102791.41;4902769;29;20032;-83
2021/12/20 10:00:38;;;;;;;27.42;5.90;;;;;;;5.37;86.77;102779.78;4913862;29;20499;-83
2021/12/20 10:03:04;;;;;;;24.10;5.70;;;;;;;5.32;85.50;102780.31;4913849;29;20480;-83
2021/12/20 10:05:30;;;;;;;26.30;6.40;;;;;;;5.46;86.76;102792.03;4913233;29;20039;-82
2021/12/20 10:07:56;;;;;;;26.17;5.80;;;;;;;5.42;85.48;102780.91;4913831;29;20032;-82
2021/12/20 10:10:46;;;;;;;27.70;6.05;;;;;;;5.52;85.88;102795.81;4921152;29;20019;-82
2021/12/20 10:13:29;;;;;;;23.17;5.72;;;;;;;5.49;84.84;102793.50;4901760;29;20416;-82
2021/12/20 10:15:56;;;;;;;23.05;6.22;;;;;;;5.36;83.72;102775.47;4903526;29;20119;-82
2021/12/20 10:18:23;;;;;;;24.17;5.65;;;;;;;5.46;83.05;102787.53;4913044;29;20115;-82
2021/12/20 10:20:50;;;;;;;24.33;5.60;;;;;;;5.48;83.96;102794.50;4912742;29;20091;-82
2021/12/20 10:23:20;;;;;;;21.85;5.35;;;;;;;5.52;84.73;102798.47;4912636;29;20464;-82
2021/12/20 10:25:49;;;;;;;25.23;5.45;;;;;;;5.50;85.06;102787.19;4913163;29;20163;-82
2021/12/20 10:28:18;;;;;;;29.65;6.20;;;;;;;5.57;84.66;102802.28;4913055;29;20020;-82
2021/12/20 10:30:51;;;;;;;27.67;6.15;;;;;;;5.57;84.45;102786.31;4913370;29;20395;-82
2021/12/20 10:33:21;;;;;;;24.98;5.60;;;;;;;5.56;83.59;102775.88;4913351;29;20028;-83
2021/12/20 10:35:52;;;;;;;29.85;6.03;;;;;;;5.68;83.74;102784.22;4909492;29;20472;-84
2021/12/20 10:38:17;;;;;;;27.67;5.70;;;;;;;5.74;83.62;102784.38;4898116;29;20104;-83
2021/12/20 10:40:56;;;;;;;24.87;5.87;;;;;;;5.73;85.83;102781.88;4898579;29;20036;-84
2021/12/20 10:43:28;;;;;;;21.50;5.82;;;;;;;5.74;83.29;102780.88;4898448;29;20281;-82
2021/12/20 10:45:55;;;;;;;21.90;5.10;;;;;;;5.83;82.74;102793.13;4900988;29;20029;-82
2021/12/20 10:48:31;;;;;;;23.10;5.22;;;;;;;5.80;82.59;102793.47;4898068;29;20064;-83
2021/12/20 10:50:57;;;;;;;30.38;6.30;;;;;;;5.79;82.38;102791.81;4898590;29;20106;-82
2021/12/20 10:53:24;;;;;;;19.50;4.95;;;;;;;5.82;83.46;102787.97;4897999;29;20120;-82
2021/12/20 10:55:56;;;;;;;24.00;5.38;;;;;;;5.86;83.90;102786.63;4898396;29;20029;-81
2021/12/20 10:58:32;;;;;;;23.42;5.60;;;;;;;5.93;84.09;102789.38;4898298;29;20032;-81
2021/12/20 11:01:20;;;;;;;21.90;5.15;;;;;;;6.01;84.29;102795.50;4898149;29;20449;-81
2021/12/20 11:04:01;;;;;;;20.10;5.03;;;;;;;6.08;84.53;102786.81;4898076;29;20024;-81
2021/12/20 11:06:41;;;;;;;24.70;5.03;;;;;;;6.07;82.63;102780.66;4887854;29;20123;-81
2021/12/20 11:09:17;;;;;;;27.35;5.57;;;;;;;6.14;82.98;102784.25;4916378;29;20028;-81
2021/12/20 11:11:54;;;;;;;22.50;5.90;;;;;;;6.19;82.34;102781.06;4916876;29;20035;-82
2021/12/20 11:14:25;;;;;;;22.13;4.93;;;;;;;6.13;84.97;102761.31;4905427;29;20051;-82
2021/12/20 11:16:53;;;;;;;21.20;5.20;;;;;;;6.16;81.61;102786.72;4917047;29;20024;-81
2021/12/20 11:19:37;;;;;;;26.00;5.57;;;;;;;6.11;83.12;102784.63;4916074;29;20040;-81
2021/12/20 11:22:26;;;;;;;24.27;6.10;;;;;;;5.91;85.46;102769.09;4916552;29;20558;-82
2021/12/20 11:24:55;;;;;;;26.00;5.22;;;;;;;5.75;83.23;102764.72;4892792;29;20052;-81
2021/12/20 11:27:34;;;;;;;25.48;5.30;;;;;;;5.57;85.62;102767.69;4916254;29;20079;-81
2021/12/20 11:30:12;;;;;;;25.05;6.07;;;;;;;5.29;85.21;102759.38;4915906;29;20024;-82
2021/12/20 11:32:42;;;;;;;24.73;6.13;;;;;;;5.25;85.60;102769.56;4916622;29;20051;-83
2021/12/20 11:35:11;;;;;;;21.77;6.00;;;;;;;5.26;85.94;102778.34;4916779;29;20028;-82